NGTA/TRW METAR and TAF weather

Enter ICAO airport designator
Station Type Date Time Source
NGTA METAR 2020/07/08 22:00 UTC NOAA

NGTA 082200Z 07009KT 9999 FEW020 30/24 Q1010


Station Type Date Time Source
NGTA Decoded METAR 2020/07/08 22:00 UTC NOAA

Tarawa, Kiribati (NGTA) 01-21N 172-55E 4M
Jul 08, 2020 - 06:00 PM EDT / 2020.07.08 2200 UTC
Wind: from the ENE (070 degrees) at 10 MPH (9 KT):0
Visibility: greater than 7 mile(s):0
Sky conditions: mostly clear
Temperature: 86 F (30 C)
Heat index: 95.0 F (35.0 C):1
Dew Point: 75 F (24 C)
Relative Humidity: 70%
Pressure (altimeter): 29.83 in. Hg (1010 hPa)
ob: NGTA 082200Z 07009KT 9999 FEW020 30/24 Q1010
cycle: 22

Station Type Date Time Source
NGTA TAF 2020/07/08 18:21 UTC NOAA

TAF NGTA 081710Z 0818/0918 08012KT 9999 FEW020

Example: see airport list